VNY - Van Nuys

Pirep is a free, collaborative database of all public and private airports located within the United States. All pilots are welcome to contribute, edit, and improve any airport they have local knowledge about, no registration required.
Uploaded photos will be licensed under a CC BY-SA 4.0 license. Please only upload photos you have the rights to use.
Tags
Public
METAR / TAF
Flying Clubs
Edit Tags
Food
Camping
Lodging
Car Rental
Bicycles
Swimming
Golfing
Fishing
Hot Springs
Museum
Airpark
Upcoming Events
No upcoming events. Is anything happening here soon?
*
*
*

Where exactly on/near the airport is this event taking place?

Is there a webpage with more information for this event?

Who should be contacted for more information?

What is this event all about?

Repeat every
Description
Last updated: 2023-04-14 15:44:47 PDT
Transient Parking
Fuel Location
Landing & Tie-down Fees
Crew Car Availability
Flying Clubs
Last updated: 2024-03-19 19:29:24 PDT
WiFi Access
Airport Statistics
Location: Van Nuys, CA
Elevation: 802ft
Sectional: Los Angeles
Activation date: Jul 1942
Fuel: 100LL, A (prices)
Runway 16R/34L: 8,001ft
Runway 16L/34R: 4,013ft
Access: Open to the public
Current Weather — MVFR
  • Weather data is strictly informational and not for flight planning purposes.
  • METAR
    2024-05-29 09:51:00 PDT
    Ceiling Wind Temperature Dewpoint Weather Visbility
    1,100ft Variable 60°F 53°F Haze 5SM
    Clouds: Overcast @ 1,100ft
    Raw: KVNY 291651Z VRB03KT 5SM HZ OVC011 16/12 A3003 RMK AO2 SLP165 T01560122
  • TAF
    2024-05-29 10:00:00 PDT – 2024-05-29 12:00:00 PDT
    Ceiling Wind Weather Visbility
    1,200ft Variable Haze 5SM
    Clouds: Overcast @ 1,200ft
    Raw: KVNY 291709Z 2917/3012 VRB03KT 5SM HZ OVC012 FM291900 14008KT P6SM SKC FM300400 VRB03KT P6SM SKC
  • TAF
    2024-05-29 12:00:00 PDT – 2024-05-29 21:00:00 PDT
    Ceiling Wind Weather Visbility
    Sky clear 140° @ 8kt N/A 6SM
    Clouds: @ ft
    Raw: KVNY 291709Z 2917/3012 VRB03KT 5SM HZ OVC012 FM291900 14008KT P6SM SKC FM300400 VRB03KT P6SM SKC
  • TAF
    2024-05-29 21:00:00 PDT – 2024-05-30 05:00:00 PDT
    Ceiling Wind Weather Visbility
    Sky clear Variable N/A 6SM
    Clouds: @ ft
    Raw: KVNY 291709Z 2917/3012 VRB03KT 5SM HZ OVC012 FM291900 14008KT P6SM SKC FM300400 VRB03KT P6SM SKC
Click/tap to add an annotation marker to the map
Airport Webcams
No webcams added yet.
Direct links to live image URLs will be displayed inline on this page. URLs to separate webpages will be linked to.
URL:
Direct links to live image URLs will be displayed inline on this page. URLs to separate webpages will be linked to.
URL:
Remarks
  • This airport has been surveyed by the national geodetic survey.
  • Ry 16l/34r clsd & unlgtd when tower closed.
  • Extreme noise sensitive area.
  • Noise ordinance curfew: no tkofs for acft exceeding 74 dba (per ac36-3) btn 2200-0700; excp military; mercy flights & law enforcement acft.
  • Arpt clsd to air carrier opns.
Comments
Leave a comment What was your experience like at this airport?